sensor_id;sensor_type;location;lat;lon;timestamp;pressure;altitude;pressure_sealevel;temperature;humidity
3132;BME280;62090;52.330;9.104;2023-04-01T00:02:37;98892.16;;;11.30;100.00
3132;BME280;62090;52.330;9.104;2023-04-01T00:05:08;98867.63;;;11.16;100.00
3132;BME280;62090;52.330;9.104;2023-04-01T00:07:39;98893.88;;;11.31;100.00
3132;BME280;62090;52.330;9.104;2023-04-01T00:10:11;98898.97;;;11.28;100.00
3132;BME280;62090;52.330;9.104;2023-04-01T00:12:41;98866.88;;;11.01;100.00
3132;BME280;62090;52.330;9.104;2023-04-01T00:15:14;98882.09;;;11.14;100.00
3132;BME280;62090;52.330;9.104;2023-04-01T00:17:44;98902.41;;;11.26;100.00
3132;BME280;62090;52.330;9.104;2023-04-01T00:20:14;98903.38;;;11.07;100.00
3132;BME280;62090;52.330;9.104;2023-04-01T00:22:43;98895.78;;;11.04;100.00
3132;BME280;62090;52.330;9.104;2023-04-01T00:25:16;98904.25;;;11.04;100.00
3132;BME280;62090;52.330;9.104;2023-04-01T00:27:45;98904.22;;;11.07;100.00
3132;BME280;62090;52.330;9.104;2023-04-01T00:30:19;98905.03;;;11.11;100.00
3132;BME280;62090;52.330;9.104;2023-04-01T00:32:51;98910.91;;;11.23;100.00
3132;BME280;62090;52.330;9.104;2023-04-01T00:35:21;98887.19;;;11.12;100.00
3132;BME280;62090;52.330;9.104;2023-04-01T00:37:52;98895.75;;;11.05;100.00
3132;BME280;62090;52.330;9.104;2023-04-01T00:40:29;98900.78;;;11.11;100.00
3132;BME280;62090;52.330;9.104;2023-04-01T00:43:00;98887.28;;;11.05;100.00
3132;BME280;62090;52.330;9.104;2023-04-01T00:45:35;98855.19;;;10.78;100.00
3132;BME280;62090;52.330;9.104;2023-04-01T00:48:10;98889.00;;;10.98;100.00
3132;BME280;62090;52.330;9.104;2023-04-01T00:50:42;98885.50;;;11.11;100.00
3132;BME280;62090;52.330;9.104;2023-04-01T00:53:14;98878.78;;;11.04;100.00
3132;BME280;62090;52.330;9.104;2023-04-01T00:55:49;98898.16;;;11.22;100.00
3132;BME280;62090;52.330;9.104;2023-04-01T00:58:21;98904.16;;;11.19;100.00
3132;BME280;62090;52.330;9.104;2023-04-01T01:00:56;98845.78;;;10.89;100.00
3132;BME280;62090;52.330;9.104;2023-04-01T01:03:29;98903.31;;;11.19;100.00
3132;BME280;62090;52.330;9.104;2023-04-01T01:06:08;98893.16;;;11.13;100.00
3132;BME280;62090;52.330;9.104;2023-04-01T01:09:03;98887.28;;;11.05;100.00
3132;BME280;62090;52.330;9.104;2023-04-01T01:11:39;98903.31;;;11.19;100.00
3132;BME280;62090;52.330;9.104;2023-04-01T01:14:22;98902.31;;;11.35;100.00
3132;BME280;62090;52.330;9.104;2023-04-01T01:17:04;98892.94;;;11.37;100.00
3132;BME280;62090;52.330;9.104;2023-04-01T01:20:04;98884.47;;;11.33;100.00
3132;BME280;62090;52.330;9.104;2023-04-01T01:26:07;98887.84;;;11.38;100.00
3132;BME280;62090;52.330;9.104;2023-04-01T01:28:47;98859.09;;;11.20;100.00
3132;BME280;62090;52.330;9.104;2023-04-01T01:31:30;98897.22;;;11.35;100.00
3132;BME280;62090;52.330;9.104;2023-04-01T01:34:11;98896.41;;;11.27;100.00
3132;BME280;62090;52.330;9.104;2023-04-01T01:36:52;98826.28;;;10.82;100.00
3132;BME280;62090;52.330;9.104;2023-04-01T01:39:26;98880.41;;;11.13;100.00
3132;BME280;62090;52.330;9.104;2023-04-01T01:42:01;98898.19;;;11.16;100.00
3132;BME280;62090;52.330;9.104;2023-04-01T01:44:33;98892.22;;;11.23;100.00
3132;BME280;62090;52.330;9.104;2023-04-01T01:47:05;98891.41;;;11.21;100.00
3132;BME280;62090;52.330;9.104;2023-04-01T01:49:35;98900.66;;;11.26;100.00
3132;BME280;62090;52.330;9.104;2023-04-01T01:52:09;98894.75;;;11.23;100.00
3132;BME280;62090;52.330;9.104;2023-04-01T01:54:47;98891.31;;;11.27;100.00
3132;BME280;62090;52.330;9.104;2023-04-01T01:57:23;98881.25;;;11.12;100.00
3132;BME280;62090;52.330;9.104;2023-04-01T02:00:00;98898.19;;;11.19;100.00
3132;BME280;62090;52.330;9.104;2023-04-01T02:02:39;98840.69;;;10.84;100.00
3132;BME280;62090;52.330;9.104;2023-04-01T02:05:10;98898.97;;;11.27;100.00
3132;BME280;62090;52.330;9.104;2023-04-01T02:07:51;98888.75;;;11.30;100.00
3132;BME280;62090;52.330;9.104;2023-04-01T02:10:25;98877.03;;;11.09;100.00
3132;BME280;62090;52.330;9.104;2023-04-01T02:12:59;98865.03;;;11.22;100.00
3132;BME280;62090;52.330;9.104;2023-04-01T02:15:38;98893.81;;;11.34;100.00
3132;BME280;62090;52.330;9.104;2023-04-01T02:18:10;98894.63;;;11.41;100.00
3132;BME280;62090;52.330;9.104;2023-04-01T02:20:41;98890.44;;;11.32;100.00
3132;BME280;62090;52.330;9.104;2023-04-01T02:23:15;98890.41;;;11.35;100.00
3132;BME280;62090;52.330;9.104;2023-04-01T02:25:45;98895.53;;;11.32;100.00
3132;BME280;62090;52.330;9.104;2023-04-01T02:28:17;98894.72;;;11.29;100.00
3132;BME280;62090;52.330;9.104;2023-04-01T02:30:49;98895.56;;;11.26;100.00
3132;BME280;62090;52.330;9.104;2023-04-01T02:33:21;98897.28;;;11.29;100.00
3132;BME280;62090;52.330;9.104;2023-04-01T02:35:51;98901.59;;;11.16;100.00
3132;BME280;62090;52.330;9.104;2023-04-01T02:38:23;98891.47;;;11.09;100.00
3132;BME280;62090;52.330;9.104;2023-04-01T02:40:57;98899.94;;;11.11;100.00
3132;BME280;62090;52.330;9.104;2023-04-01T02:43:27;98877.09;;;11.00;100.00
3132;BME280;62090;52.330;9.104;2023-04-01T02:45:57;98871.16;;;10.99;100.00
3132;BME280;62090;52.330;9.104;2023-04-01T02:48:29;98902.50;;;11.11;100.00
3132;BME280;62090;52.330;9.104;2023-04-01T02:50:59;98901.69;;;11.09;100.00
3132;BME280;62090;52.330;9.104;2023-04-01T02:53:31;98883.16;;;10.85;100.00
3132;BME280;62090;52.330;9.104;2023-04-01T02:56:01;98887.38;;;10.86;100.00
3132;BME280;62090;52.330;9.104;2023-04-01T02:58:31;98879.66;;;10.95;100.00
3132;BME280;62090;52.330;9.104;2023-04-01T03:01:00;98899.97;;;11.09;100.00
3132;BME280;62090;52.330;9.104;2023-04-01T03:03:30;98910.94;;;11.17;100.00
3132;BME280;62090;52.330;9.104;2023-04-01T03:06:04;98892.34;;;11.06;100.00
3132;BME280;62090;52.330;9.104;2023-04-01T03:08:37;98912.72;;;11.09;100.00
3132;BME280;62090;52.330;9.104;2023-04-01T03:11:07;98894.03;;;11.09;100.00
3132;BME280;62090;52.330;9.104;2023-04-01T03:13:38;98906.75;;;11.15;100.00
3132;BME280;62090;52.330;9.104;2023-04-01T03:16:08;98903.38;;;11.10;100.00
3132;BME280;62090;52.330;9.104;2023-04-01T03:18:38;98900.03;;;11.05;100.00
3132;BME280;62090;52.330;9.104;2023-04-01T03:21:15;98905.97;;;11.02;100.00
3132;BME280;62090;52.330;9.104;2023-04-01T03:23:48;98903.34;;;11.13;100.00
3132;BME280;62090;52.330;9.104;2023-04-01T03:26:18;98922.88;;;11.12;100.00
3132;BME280;62090;52.330;9.104;2023-04-01T03:28:48;98908.41;;;11.16;100.00
3132;BME280;62090;52.330;9.104;2023-04-01T03:31:18;98910.22;;;11.05;100.00
3132;BME280;62090;52.330;9.104;2023-04-01T03:33:53;98907.69;;;10.95;100.00
3132;BME280;62090;52.330;9.104;2023-04-01T03:36:23;98901.00;;;10.82;100.00
3132;BME280;62090;52.330;9.104;2023-04-01T03:38:55;98910.34;;;10.83;100.00
3132;BME280;62090;52.330;9.104;2023-04-01T03:41:35;98906.06;;;10.88;100.00
3132;BME280;62090;52.330;9.104;2023-04-01T03:44:05;98894.19;;;10.84;100.00
3132;BME280;62090;52.330;9.104;2023-04-01T03:46:35;98910.25;;;10.98;100.00
3132;BME280;62090;52.330;9.104;2023-04-01T03:49:06;98876.44;;;10.71;100.00
3132;BME280;62090;52.330;9.104;2023-04-01T03:51:38;98900.16;;;10.83;100.00
3132;BME280;62090;52.330;9.104;2023-04-01T03:54:11;98916.19;;;10.97;100.00
3132;BME280;62090;52.330;9.104;2023-04-01T03:56:43;98915.31;;;11.03;100.00
3132;BME280;62090;52.330;9.104;2023-04-01T03:59:13;98912.72;;;11.06;100.00
3132;BME280;62090;52.330;9.104;2023-04-01T04:01:43;98926.38;;;10.94;100.00
3132;BME280;62090;52.330;9.104;2023-04-01T04:04:15;98905.25;;;10.80;100.00
3132;BME280;62090;52.330;9.104;2023-04-01T04:06:45;98915.41;;;10.88;100.00
3132;BME280;62090;52.330;9.104;2023-04-01T04:09:18;98918.72;;;11.04;100.00
3132;BME280;62090;52.330;9.104;2023-04-01T04:11:48;98899.28;;;10.84;100.00
3132;BME280;62090;52.330;9.104;2023-04-01T04:14:18;98906.00;;;10.96;100.00
3132;BME280;62090;52.330;9.104;2023-04-01T04:16:48;98920.41;;;11.01;100.00
3132;BME280;62090;52.330;9.104;2023-04-01T04:19:19;98923.81;;;11.04;100.00
3132;BME280;62090;52.330;9.104;2023-04-01T04:21:49;98873.09;;;10.67;100.00
3132;BME280;62090;52.330;9.104;2023-04-01T04:24:21;98924.69;;;10.96;100.00
3132;BME280;62090;52.330;9.104;2023-04-01T04:27:06;98925.63;;;10.83;100.00
3132;BME280;62090;52.330;9.104;2023-04-01T04:29:43;98923.06;;;10.85;100.00
3132;BME280;62090;52.330;9.104;2023-04-01T04:32:12;98911.16;;;10.85;100.00
3132;BME280;62090;52.330;9.104;2023-04-01T04:34:42;98921.41;;;10.81;100.00
3132;BME280;62090;52.330;9.104;2023-04-01T04:37:12;98917.13;;;10.84;100.00
3132;BME280;62090;52.330;9.104;2023-04-01T04:39:45;98927.16;;;11.06;100.00
3132;BME280;62090;52.330;9.104;2023-04-01T04:42:15;98933.13;;;11.06;100.00
3132;BME280;62090;52.330;9.104;2023-04-01T04:44:45;98936.53;;;11.04;100.00
3132;BME280;62090;52.330;9.104;2023-04-01T04:47:15;98934.91;;;10.92;100.00
3132;BME280;62090;52.330;9.104;2023-04-01T04:49:45;98920.53;;;10.83;100.00
3132;BME280;62090;52.330;9.104;2023-04-01T04:52:14;98932.25;;;11.06;100.00
3132;BME280;62090;52.330;9.104;2023-04-01T04:54:47;98928.91;;;11.04;100.00
3132;BME280;62090;52.330;9.104;2023-04-01T04:57:17;98937.41;;;11.01;100.00
3132;BME280;62090;52.330;9.104;2023-04-01T04:59:53;98940.78;;;11.03;100.00
3132;BME280;62090;52.330;9.104;2023-04-01T05:02:55;98926.34;;;11.04;100.00
3132;BME280;62090;52.330;9.104;2023-04-01T05:05:25;98943.38;;;10.97;100.00
3132;BME280;62090;52.330;9.104;2023-04-01T05:07:55;98942.50;;;11.02;100.00
3132;BME280;62090;52.330;9.104;2023-04-01T05:10:27;98934.81;;;11.06;100.00
3132;BME280;62090;52.330;9.104;2023-04-01T05:12:58;98938.25;;;11.00;100.00
3132;BME280;62090;52.330;9.104;2023-04-01T05:15:28;98951.81;;;11.07;100.00
3132;BME280;62090;52.330;9.104;2023-04-01T05:17:58;98943.38;;;10.97;100.00
3132;BME280;62090;52.330;9.104;2023-04-01T05:20:28;98956.09;;;11.01;100.00
3132;BME280;62090;52.330;9.104;2023-04-01T05:22:59;98953.50;;;11.08;100.00
3132;BME280;62090;52.330;9.104;2023-04-01T05:25:31;98907.00;;;10.74;100.00
3132;BME280;62090;52.330;9.104;2023-04-01T05:28:01;98918.81;;;10.88;100.00
3132;BME280;62090;52.330;9.104;2023-04-01T05:30:31;98962.78;;;11.18;100.00
3132;BME280;62090;52.330;9.104;2023-04-01T05:33:21;98939.97;;;10.98;100.00
3132;BME280;62090;52.330;9.104;2023-04-01T05:35:51;98962.78;;;11.18;100.00
3132;BME280;62090;52.330;9.104;2023-04-01T05:38:21;98950.91;;;11.14;100.00
3132;BME280;62090;52.330;9.104;2023-04-01T05:40:58;98966.94;;;11.31;100.00
3132;BME280;62090;52.330;9.104;2023-04-01T05:43:29;98966.16;;;11.26;100.00
3132;BME280;62090;52.330;9.104;2023-04-01T05:46:08;98959.38;;;11.19;100.00
3132;BME280;62090;52.330;9.104;2023-04-01T05:48:48;98955.09;;;11.24;100.00
3132;BME280;62090;52.330;9.104;2023-04-01T05:51:19;98941.50;;;11.22;100.00
3132;BME280;62090;52.330;9.104;2023-04-01T05:53:49;98949.03;;;11.37;100.00
3132;BME280;62090;52.330;9.104;2023-04-01T05:56:22;98967.59;;;11.54;100.00
3132;BME280;62090;52.330;9.104;2023-04-01T05:58:53;98962.53;;;11.51;100.00
3132;BME280;62090;52.330;9.104;2023-04-01T06:01:24;98962.59;;;11.43;100.00
3132;BME280;62090;52.330;9.104;2023-04-01T06:03:54;98963.41;;;11.49;100.00
3132;BME280;62090;52.330;9.104;2023-04-01T06:06:27;98967.66;;;11.48;100.00
3132;BME280;62090;52.330;9.104;2023-04-01T06:09:12;98960.88;;;11.44;100.00
3132;BME280;62090;52.330;9.104;2023-04-01T06:12:10;98952.44;;;11.37;100.00
3132;BME280;62090;52.330;9.104;2023-04-01T06:14:57;98971.91;;;11.49;100.00
3132;BME280;62090;52.330;9.104;2023-04-01T06:17:41;98976.91;;;11.60;100.00
3132;BME280;62090;52.330;9.104;2023-04-01T06:20:22;98973.59;;;11.50;100.00
3132;BME280;62090;52.330;9.104;2023-04-01T06:23:05;98963.56;;;11.29;100.00
3132;BME280;62090;52.330;9.104;2023-04-01T06:25:52;98957.59;;;11.30;100.00
3132;BME280;62090;52.330;9.104;2023-04-01T06:28:51;98979.53;;;11.52;100.00
3132;BME280;62090;52.330;9.104;2023-04-01T06:34:47;98987.03;;;11.75;100.00
3132;BME280;62090;52.330;9.104;2023-04-01T06:37:27;98994.66;;;11.76;100.00
3132;BME280;62090;52.330;9.104;2023-04-01T06:40:17;98988.66;;;11.82;100.00
3132;BME280;62090;52.330;9.104;2023-04-01T06:43:00;98981.94;;;11.72;100.00
3132;BME280;62090;52.330;9.104;2023-04-01T06:45:58;99009.88;;;11.87;100.00
3132;BME280;62090;52.330;9.104;2023-04-01T06:49:28;98992.97;;;11.72;100.00
3132;BME280;62090;52.330;9.104;2023-04-01T06:52:40;99003.84;;;11.96;100.00
3132;BME280;62090;52.330;9.104;2023-04-01T06:55:43;99005.34;;;12.16;100.00
3132;BME280;62090;52.330;9.104;2023-04-01T06:58:22;98995.13;;;12.19;100.00
3132;BME280;62090;52.330;9.104;2023-04-01T07:00:59;98991.59;;;12.31;100.00
3132;BME280;62090;52.330;9.104;2023-04-01T07:03:33;98995.75;;;12.41;100.00
3132;BME280;62090;52.330;9.104;2023-04-01T07:06:09;99018.53;;;12.58;100.00
3132;BME280;62090;52.330;9.104;2023-04-01T07:08:51;99021.97;;;12.57;100.00
3132;BME280;62090;52.330;9.104;2023-04-01T07:11:25;99011.69;;;12.60;100.00
3132;BME280;62090;52.330;9.104;2023-04-01T07:14:33;98988.97;;;12.37;100.00
3132;BME280;62090;52.330;9.104;2023-04-01T07:17:11;99012.66;;;12.51;100.00
3132;BME280;62090;52.330;9.104;2023-04-01T07:19:45;99029.75;;;12.46;100.00
3132;BME280;62090;52.330;9.104;2023-04-01T07:22:23;99017.16;;;12.30;100.00
3132;BME280;62090;52.330;9.104;2023-04-01T07:25:11;99033.16;;;12.45;100.00
3132;BME280;62090;52.330;9.104;2023-04-01T07:27:45;99040.75;;;12.53;100.00
3132;BME280;62090;52.330;9.104;2023-04-01T07:30:17;99020.38;;;12.44;100.00
3132;BME280;62090;52.330;9.104;2023-04-01T07:32:54;99007.63;;;12.44;100.00
3132;BME280;62090;52.330;9.104;2023-04-01T07:35:33;99043.09;;;12.69;100.00
3132;BME280;62090;52.330;9.104;2023-04-01T07:38:14;99050.84;;;12.62;100.00
3132;BME280;62090;52.330;9.104;2023-04-01T07:40:49;99046.53;;;12.68;100.00
3132;BME280;62090;52.330;9.104;2023-04-01T07:43:43;99050.75;;;12.73;100.00
3132;BME280;62090;52.330;9.104;2023-04-01T07:46:38;99030.41;;;12.62;100.00
3132;BME280;62090;52.330;9.104;2023-04-01T07:49:16;99058.16;;;12.91;100.00
3132;BME280;62090;52.330;9.104;2023-04-01T07:51:56;99061.44;;;13.02;100.00
3132;BME280;62090;52.330;9.104;2023-04-01T07:54:33;99062.22;;;13.08;100.00
3132;BME280;62090;52.330;9.104;2023-04-01T07:57:12;99073.31;;;13.09;100.00
3132;BME280;62090;52.330;9.104;2023-04-01T07:59:58;99056.41;;;12.96;100.00
3132;BME280;62090;52.330;9.104;2023-04-01T08:03:09;99070.75;;;13.07;100.00
3132;BME280;62090;52.330;9.104;2023-04-01T08:05:53;99007.16;;;12.82;100.00
3132;BME280;62090;52.330;9.104;2023-04-01T08:08:34;99083.22;;;13.35;100.00
3132;BME280;62090;52.330;9.104;2023-04-01T08:11:41;99081.34;;;13.47;100.00
3132;BME280;62090;52.330;9.104;2023-04-01T08:14:39;99091.31;;;13.66;100.00
3132;BME280;62090;52.330;9.104;2023-04-01T08:17:54;99081.91;;;13.68;100.00
3132;BME280;62090;52.330;9.104;2023-04-01T08:20:34;99072.47;;;13.71;100.00
3132;BME280;62090;52.330;9.104;2023-04-01T08:23:13;99074.94;;;13.77;99.21
3132;BME280;62090;52.330;9.104;2023-04-01T08:25:50;99091.94;;;13.81;97.54
3132;BME280;62090;52.330;9.104;2023-04-01T08:28:27;99104.78;;;13.80;97.66
3132;BME280;62090;52.330;9.104;2023-04-01T08:31:04;99100.34;;;13.89;98.09
3132;BME280;62090;52.330;9.104;2023-04-01T08:33:36;99097.03;;;13.81;99.16
3132;BME280;62090;52.330;9.104;2023-04-01T08:36:13;99088.41;;;13.88;98.62
3132;BME280;62090;52.330;9.104;2023-04-01T08:39:03;99069.53;;;13.94;98.29
3132;BME280;62090;52.330;9.104;2023-04-01T08:45:10;99086.72;;;13.86;99.24
3132;BME280;62090;52.330;9.104;2023-04-01T08:48:11;99056.19;;;13.75;98.87
3132;BME280;62090;52.330;9.104;2023-04-01T08:51:09;99116.50;;;13.91;97.88
3132;BME280;62090;52.330;9.104;2023-04-01T08:57:12;99120.16;;;13.78;98.53
3132;BME280;62090;52.330;9.104;2023-04-01T09:00:15;99114.19;;;13.76;98.35
3132;BME280;62090;52.330;9.104;2023-04-01T09:06:29;99125.25;;;13.80;98.57
3132;BME280;62090;52.330;9.104;2023-04-01T09:09:25;99126.88;;;13.84;96.28
3132;BME280;62090;52.330;9.104;2023-04-01T09:15:21;99123.34;;;13.91;95.80
3132;BME280;62090;52.330;9.104;2023-04-01T09:18:13;99075.94;;;13.69;95.42
3132;BME280;62090;52.330;9.104;2023-04-01T09:21:21;99137.50;;;14.15;95.71
3132;BME280;62090;52.330;9.104;2023-04-01T09:27:10;99145.91;;;14.23;96.34
3132;BME280;62090;52.330;9.104;2023-04-01T09:33:36;99142.81;;;14.01;94.67
3132;BME280;62090;52.330;9.104;2023-04-01T09:36:21;99142.97;;;13.93;96.30
3132;BME280;62090;52.330;9.104;2023-04-01T09:38:57;99139.47;;;13.99;96.87
3132;BME280;62090;52.330;9.104;2023-04-01T09:41:31;99123.47;;;13.85;95.57
3132;BME280;62090;52.330;9.104;2023-04-01T09:44:15;99163.28;;;14.04;94.96
3132;BME280;62090;52.330;9.104;2023-04-01T09:47:11;99163.16;;;14.12;95.51
3132;BME280;62090;52.330;9.104;2023-04-01T09:50:13;99141.84;;;14.10;95.67
3132;BME280;62090;52.330;9.104;2023-04-01T09:52:52;99153.06;;;14.03;95.77
3132;BME280;62090;52.330;9.104;2023-04-01T09:59:01;99177.59;;;14.17;95.85
3132;BME280;62090;52.330;9.104;2023-04-01T10:02:15;99179.34;;;14.14;96.50
3132;BME280;62090;52.330;9.104;2023-04-01T10:05:27;99184.63;;;14.03;96.41
3132;BME280;62090;52.330;9.104;2023-04-01T10:08:30;99188.03;;;14.05;97.39
3132;BME280;62090;52.330;9.104;2023-04-01T10:11:44;99193.16;;;14.04;97.50
3132;BME280;62090;52.330;9.104;2023-04-01T10:18:00;99196.78;;;13.90;97.92
3132;BME280;62090;52.330;9.104;2023-04-01T10:26:55;99182.09;;;14.02;97.71
3132;BME280;62090;52.330;9.104;2023-04-01T10:30:05;99199.75;;;14.20;98.35
3132;BME280;62090;52.330;9.104;2023-04-01T10:33:10;99200.53;;;14.25;99.06
3132;BME280;62090;52.330;9.104;2023-04-01T10:36:18;99187.72;;;14.26;99.05
3132;BME280;62090;52.330;9.104;2023-04-01T10:46:04;99191.53;;;14.56;99.12
3132;BME280;62090;52.330;9.104;2023-04-01T10:49:16;99202.44;;;14.67;98.81
3132;BME280;62090;52.330;9.104;2023-04-01T10:52:39;99198.16;;;14.69;97.27
3132;BME280;62090;52.330;9.104;2023-04-01T10:56:15;99167.13;;;14.32;96.47
3132;BME280;62090;52.330;9.104;2023-04-01T11:06:17;99210.88;;;14.74;95.19
3132;BME280;62090;52.330;9.104;2023-04-01T11:09:22;99201.00;;;14.51;95.11
3132;BME280;62090;52.330;9.104;2023-04-01T11:18:42;99161.44;;;14.14;94.21
3132;BME280;62090;52.330;9.104;2023-04-01T11:21:49;99227.28;;;14.64;95.42
3132;BME280;62090;52.330;9.104;2023-04-01T11:25:14;99229.50;;;14.85;93.61
3132;BME280;62090;52.330;9.104;2023-04-01T11:31:54;99239.19;;;15.17;91.80
3132;BME280;62090;52.330;9.104;2023-04-01T11:34:43;99228.78;;;15.25;90.08
3132;BME280;62090;52.330;9.104;2023-04-01T11:37:27;99215.19;;;15.19;90.73
3132;BME280;62090;52.330;9.104;2023-04-01T11:40:28;99237.19;;;15.33;89.44
3132;BME280;62090;52.330;9.104;2023-04-01T11:43:33;99231.56;;;15.12;90.47
3132;BME280;62090;52.330;9.104;2023-04-01T11:46:36;99252.03;;;15.15;92.40
3132;BME280;62090;52.330;9.104;2023-04-01T11:49:25;99203.84;;;14.85;94.08
3132;BME280;62090;52.330;9.104;2023-04-01T11:52:21;99242.66;;;15.14;93.64
3132;BME280;62090;52.330;9.104;2023-04-01T11:55:10;99249.25;;;15.28;92.56
3132;BME280;62090;52.330;9.104;2023-04-01T11:58:04;99250.03;;;15.33;93.05
3132;BME280;62090;52.330;9.104;2023-04-01T12:00:51;99224.25;;;15.37;91.96
3132;BME280;62090;52.330;9.104;2023-04-01T12:03:51;99262.22;;;15.66;89.44
3132;BME280;62090;52.330;9.104;2023-04-01T12:06:30;99252.59;;;15.76;89.80
3132;BME280;62090;52.330;9.104;2023-04-01T12:09:10;99255.03;;;15.82;89.93
3132;BME280;62090;52.330;9.104;2023-04-01T12:11:50;99247.44;;;15.77;89.25
3132;BME280;62090;52.330;9.104;2023-04-01T12:14:32;99269.69;;;15.77;89.93
3132;BME280;62090;52.330;9.104;2023-04-01T12:17:10;99258.38;;;15.44;90.05
3132;BME280;62090;52.330;9.104;2023-04-01T12:19:51;99281.53;;;15.39;93.21
3132;BME280;62090;52.330;9.104;2023-04-01T12:22:32;99257.63;;;15.37;93.08
3132;BME280;62090;52.330;9.104;2023-04-01T12:25:14;99241.09;;;15.53;94.41
3132;BME280;62090;52.330;9.104;2023-04-01T12:27:57;99278.50;;;15.65;92.62
3132;BME280;62090;52.330;9.104;2023-04-01T12:30:49;99240.59;;;15.33;91.18
3132;BME280;62090;52.330;9.104;2023-04-01T12:33:36;99277.91;;;15.49;91.70
3132;BME280;62090;52.330;9.104;2023-04-01T12:36:23;99289.66;;;15.64;91.11
3132;BME280;62090;52.330;9.104;2023-04-01T12:39:13;99271.06;;;15.50;90.61
3132;BME280;62090;52.330;9.104;2023-04-01T12:41:53;99293.09;;;15.65;91.83
3132;BME280;62090;52.330;9.104;2023-04-01T12:44:35;99271.06;;;15.50;89.77
3132;BME280;62090;52.330;9.104;2023-04-01T12:47:28;99300.22;;;15.46;91.29
3132;BME280;62090;52.330;9.104;2023-04-01T12:50:12;99307.84;;;15.52;92.20
3132;BME280;62090;52.330;9.104;2023-04-01T12:52:56;99305.97;;;15.61;91.77
3132;BME280;62090;52.330;9.104;2023-04-01T12:55:38;99294.22;;;15.47;90.17
3132;BME280;62090;52.330;9.104;2023-04-01T13:01:52;99325.75;;;15.56;90.18
3132;BME280;62090;52.330;9.104;2023-04-01T13:07:57;99305.28;;;15.52;91.23
3132;BME280;62090;52.330;9.104;2023-04-01T13:10:41;99322.41;;;15.53;92.05
3132;BME280;62090;52.330;9.104;2023-04-01T13:16:25;99336.16;;;15.46;91.69
3132;BME280;62090;52.330;9.104;2023-04-01T13:19:01;99325.06;;;15.45;90.77
3132;BME280;62090;52.330;9.104;2023-04-01T13:21:45;99316.69;;;15.34;92.27
3132;BME280;62090;52.330;9.104;2023-04-01T13:24:28;99315.59;;;15.49;92.36
3132;BME280;62090;52.330;9.104;2023-04-01T13:27:04;99358.00;;;15.71;91.71
3132;BME280;62090;52.330;9.104;2023-04-01T13:29:39;99354.56;;;15.71;91.81
3132;BME280;62090;52.330;9.104;2023-04-01T13:32:19;99329.31;;;15.48;91.59
3132;BME280;62090;52.330;9.104;2023-04-01T13:35:19;99352.84;;;15.71;92.20
3132;BME280;62090;52.330;9.104;2023-04-01T13:38:08;99335.22;;;15.53;92.47
3132;BME280;62090;52.330;9.104;2023-04-01T13:40:49;99362.34;;;15.66;92.89
3132;BME280;62090;52.330;9.104;2023-04-01T13:43:32;99348.06;;;15.53;91.37
3132;BME280;62090;52.330;9.104;2023-04-01T13:46:16;99366.84;;;15.55;91.77
3132;BME280;62090;52.330;9.104;2023-04-01T13:49:15;99320.63;;;15.06;92.36
3132;BME280;62090;52.330;9.104;2023-04-01T13:52:28;99368.09;;;15.31;90.42
3132;BME280;62090;52.330;9.104;2023-04-01T13:55:16;99369.22;;;15.13;90.20
3132;BME280;62090;52.330;9.104;2023-04-01T13:58:05;99387.06;;;15.23;90.46
3132;BME280;62090;52.330;9.104;2023-04-01T14:00:52;99392.22;;;15.21;92.22
3132;BME280;62090;52.330;9.104;2023-04-01T14:03:30;99357.34;;;15.08;92.05
3132;BME280;62090;52.330;9.104;2023-04-01T14:06:13;99393.16;;;15.17;90.14
3132;BME280;62090;52.330;9.104;2023-04-01T14:11:56;99399.16;;;15.13;89.65
3132;BME280;62090;52.330;9.104;2023-04-01T14:14:36;99389.00;;;15.08;89.24
3132;BME280;62090;52.330;9.104;2023-04-01T14:17:26;99371.25;;;14.95;88.92
3132;BME280;62090;52.330;9.104;2023-04-01T14:20:27;99370.44;;;14.91;88.49
3132;BME280;62090;52.330;9.104;2023-04-01T14:26:07;99420.78;;;14.98;91.38
3132;BME280;62090;52.330;9.104;2023-04-01T14:28:49;99405.69;;;14.80;92.69
3132;BME280;62090;52.330;9.104;2023-04-01T14:31:30;99428.66;;;14.86;93.21
3132;BME280;62090;52.330;9.104;2023-04-01T14:34:15;99441.69;;;14.71;94.12
3132;BME280;62090;52.330;9.104;2023-04-01T14:36:56;99421.56;;;14.42;94.93
3132;BME280;62090;52.330;9.104;2023-04-01T14:39:46;99445.94;;;13.97;98.63
3132;BME280;62090;52.330;9.104;2023-04-01T14:42:41;99424.41;;;13.26;100.00
3132;BME280;62090;52.330;9.104;2023-04-01T14:45:41;99458.75;;;12.80;100.00
3132;BME280;62090;52.330;9.104;2023-04-01T14:48:23;99441.84;;;12.56;100.00
3132;BME280;62090;52.330;9.104;2023-04-01T14:51:02;99478.44;;;12.61;100.00
3132;BME280;62090;52.330;9.104;2023-04-01T14:53:36;99468.31;;;12.38;100.00
3132;BME280;62090;52.330;9.104;2023-04-01T14:56:09;99487.91;;;12.36;100.00
3132;BME280;62090;52.330;9.104;2023-04-01T14:58:43;99490.50;;;12.18;100.00
3132;BME280;62090;52.330;9.104;2023-04-01T15:01:30;99488.00;;;11.91;100.00
3132;BME280;62090;52.330;9.104;2023-04-01T15:07:59;99493.09;;;11.72;100.00
3132;BME280;62090;52.330;9.104;2023-04-01T15:10:59;99502.47;;;11.63;100.00
3132;BME280;62090;52.330;9.104;2023-04-01T15:13:48;99503.31;;;11.47;100.00
3132;BME280;62090;52.330;9.104;2023-04-01T15:16:28;99519.44;;;11.42;100.00
3132;BME280;62090;52.330;9.104;2023-04-01T15:19:12;99489.66;;;11.19;100.00
3132;BME280;62090;52.330;9.104;2023-04-01T15:21:55;99521.16;;;11.36;100.00
3132;BME280;62090;52.330;9.104;2023-04-01T15:24:41;99534.75;;;11.36;100.00
3132;BME280;62090;52.330;9.104;2023-04-01T15:27:25;99515.97;;;11.09;100.00
3132;BME280;62090;52.330;9.104;2023-04-01T15:30:18;99551.72;;;11.33;100.00
3132;BME280;62090;52.330;9.104;2023-04-01T15:33:06;99503.22;;;11.04;100.00
3132;BME280;62090;52.330;9.104;2023-04-01T15:35:43;99558.47;;;11.13;100.00
3132;BME280;62090;52.330;9.104;2023-04-01T15:38:25;99566.06;;;11.00;100.00
3132;BME280;62090;52.330;9.104;2023-04-01T15:41:03;99577.97;;;11.01;100.00
3132;BME280;62090;52.330;9.104;2023-04-01T15:43:41;99579.66;;;10.96;100.00
3132;BME280;62090;52.330;9.104;2023-04-01T15:46:20;99586.44;;;10.91;100.00